createdAt,value
2022-12-05T00:01:31.120Z,97306.78
2022-12-05T00:04:02.778Z,97297.69
2022-12-05T00:06:32.468Z,97297.69
2022-12-05T00:08:59.818Z,97303.25
2022-12-05T00:11:30.140Z,97303.25
2022-12-05T00:13:59.571Z,97298.44
2022-12-05T00:16:28.830Z,97305.75
2022-12-05T00:18:56.608Z,97307.56
2022-12-05T00:21:26.231Z,97306.03
2022-12-05T00:23:55.472Z,97309.59
2022-12-05T00:26:23.206Z,97312.88
2022-12-05T00:28:52.511Z,97301.22
2022-12-05T00:31:22.426Z,97306.31
2022-12-05T00:33:51.564Z,97315.16
2022-12-05T00:36:26.989Z,97313.13
2022-12-05T00:38:56.434Z,97313.44
2022-12-05T00:41:25.388Z,97320.78
2022-12-05T00:43:53.447Z,97322.81
2022-12-05T00:46:23.396Z,97324.56
2022-12-05T00:48:54.960Z,97322.25
2022-12-05T00:51:29.513Z,97316.69
2022-12-05T00:54:02.368Z,97315.91
2022-12-05T00:56:32.930Z,97320.16
2022-12-05T00:59:02.765Z,97324.00
2022-12-05T01:01:33.670Z,97326.00
2022-12-05T01:04:05.451Z,97326.00
2022-12-05T01:06:32.707Z,97322.94
2022-12-05T01:09:00.536Z,97317.09
2022-12-05T01:11:28.389Z,97320.63
2022-12-05T01:13:56.931Z,97332.63
2022-12-05T01:16:26.122Z,97330.13
2022-12-05T01:18:54.091Z,97329.91
2022-12-05T01:21:21.875Z,97345.44
2022-12-05T01:23:49.484Z,97350.31
2022-12-05T01:26:21.437Z,97351.38
2022-12-05T01:28:49.830Z,97352.88
2022-12-05T01:31:27.143Z,97357.28
2022-12-05T01:33:55.973Z,97356.31
2022-12-05T01:36:25.375Z,97355.63
2022-12-05T01:38:53.188Z,97358.19
2022-12-05T01:41:32.594Z,97360.50
2022-12-05T01:44:05.591Z,97357.50
2022-12-05T01:46:35.598Z,97366.16
2022-12-05T01:49:13.586Z,97360.84
2022-12-05T01:51:45.917Z,97364.69
2022-12-05T01:54:17.223Z,97367.75
2022-12-05T01:56:51.340Z,97367.81
2022-12-05T01:59:21.845Z,97361.72
2022-12-05T02:01:50.547Z,97371.63
2022-12-05T02:04:17.934Z,97365.78
2022-12-05T02:06:47.011Z,97375.94
2022-12-05T02:09:15.475Z,97367.13
2022-12-05T02:12:08.337Z,97376.50
2022-12-05T02:14:57.250Z,97373.72
2022-12-05T02:17:30.787Z,97374.00
2022-12-05T02:20:01.236Z,97363.59
2022-12-05T02:22:53.147Z,97363.13
2022-12-05T02:25:29.568Z,97362.34
2022-12-05T02:28:02.604Z,97362.66
2022-12-05T02:30:42.903Z,97370.25
2022-12-05T02:33:15.726Z,97376.06
2022-12-05T02:35:51.909Z,97377.63
2022-12-05T02:38:38.513Z,97376.38
2022-12-05T02:41:24.835Z,97380.69
2022-12-05T02:44:03.848Z,97376.91
2022-12-05T02:46:34.217Z,97378.94
2022-12-05T02:49:05.336Z,97383.75
2022-12-05T02:51:38.579Z,97384.72
2022-12-05T02:54:10.188Z,97394.34
2022-12-05T02:56:38.738Z,97379.63
2022-12-05T02:59:05.588Z,97384.19
2022-12-05T03:01:32.968Z,97395.31
2022-12-05T03:04:04.181Z,97386.66
2022-12-05T03:06:37.135Z,97392.25
2022-12-05T03:09:07.085Z,97393.78
2022-12-05T03:11:42.913Z,97393.78
2022-12-05T03:14:17.051Z,97395.03
2022-12-05T03:16:50.919Z,97399.09
2022-12-05T03:19:26.926Z,97398.59
2022-12-05T03:22:07.169Z,97400.34
2022-12-05T03:24:38.237Z,97400.59
2022-12-05T03:27:29.370Z,97395.78
2022-12-05T03:29:58.970Z,97391.28
2022-12-05T03:32:54.343Z,97392.06
2022-12-05T03:35:21.216Z,97402.44
2022-12-05T03:38:00.684Z,97403.69
2022-12-05T03:40:53.374Z,97407.03
2022-12-05T03:43:32.110Z,97397.63
2022-12-05T03:46:10.696Z,97398.38
2022-12-05T03:48:48.473Z,97394.06
2022-12-05T03:51:17.741Z,97398.38
2022-12-05T03:53:51.102Z,97400.91
2022-12-05T03:56:26.417Z,97398.94
2022-12-05T03:59:36.158Z,97405.78
2022-12-05T04:02:11.950Z,97409.50
2022-12-05T04:04:48.803Z,97412.59
2022-12-05T04:07:20.972Z,97409.03
2022-12-05T04:09:56.374Z,97409.31
2022-12-05T04:12:29.727Z,97413.44
2022-12-05T04:15:04.265Z,97414.19
2022-12-05T04:17:53.533Z,97421.59
2022-12-05T04:20:49.569Z,97412.44
2022-12-05T04:23:17.245Z,97411.69
2022-12-05T04:26:06.157Z,97421.59
2022-12-05T04:28:39.860Z,97423.31
2022-12-05T04:31:31.064Z,97414.69
2022-12-05T04:34:08.988Z,97423.53
2022-12-05T04:37:06.870Z,97433.22
2022-12-05T04:39:40.259Z,97425.84
2022-12-05T04:42:14.428Z,97427.63
2022-12-05T04:44:49.874Z,97422.84
2022-12-05T04:47:21.190Z,97431.47
2022-12-05T04:49:53.487Z,97434.53
2022-12-05T04:52:21.889Z,97429.44
2022-12-05T04:54:55.627Z,97430.44
2022-12-05T04:57:28.858Z,97435.00
2022-12-05T04:59:56.399Z,97433.50
2022-12-05T05:02:40.810Z,97436.56
2022-12-05T05:05:14.127Z,97436.56
2022-12-05T05:07:50.315Z,97442.69
2022-12-05T05:10:37.209Z,97439.63
2022-12-05T05:13:04.158Z,97447.69
2022-12-05T05:15:31.265Z,97443.38
2022-12-05T05:17:58.599Z,97448.69
2022-12-05T05:20:25.636Z,97451.19
2022-12-05T05:22:57.396Z,97448.69
2022-12-05T05:25:25.716Z,97443.88
2022-12-05T05:27:56.059Z,97441.56
2022-12-05T05:30:24.890Z,97454.25
2022-12-05T05:32:52.009Z,97458.28
2022-12-05T05:35:19.363Z,97459.53
2022-12-05T05:37:46.352Z,97457.75
2022-12-05T05:40:14.354Z,97461.28
2022-12-05T05:42:50.465Z,97462.47
2022-12-05T05:45:18.139Z,97469.31
2022-12-05T05:47:45.275Z,97474.13
2022-12-05T05:50:19.568Z,97475.28
2022-12-05T05:52:48.413Z,97486.63
2022-12-05T05:55:15.574Z,97482.59
2022-12-05T05:57:42.678Z,97487.88
2022-12-05T06:00:10.701Z,97495.28
2022-12-05T06:02:38.441Z,97500.09
2022-12-05T06:05:07.157Z,97497.78
2022-12-05T06:07:35.464Z,97501.03
2022-12-05T06:10:02.607Z,97498.75
2022-12-05T06:12:29.707Z,97499.53
2022-12-05T06:14:56.620Z,97510.66
2022-12-05T06:17:23.602Z,97502.78
2022-12-05T06:19:50.959Z,97505.09
2022-12-05T06:22:17.990Z,97510.66
2022-12-05T06:24:45.288Z,97503.56
2022-12-05T06:27:12.259Z,97514.22
2022-12-05T06:29:39.174Z,97516.41
2022-12-05T06:32:08.219Z,97517.91
2022-12-05T06:34:35.874Z,97513.84
2022-12-05T06:37:03.232Z,97515.84
2022-12-05T06:39:30.275Z,97521.25
2022-12-05T06:41:57.941Z,97527.38
2022-12-05T06:44:27.679Z,97527.66
2022-12-05T06:46:54.953Z,97519.50
2022-12-05T06:49:30.747Z,97527.66
2022-12-05T06:52:00.269Z,97531.69
2022-12-05T06:54:30.489Z,97526.63
2022-12-05T06:56:57.816Z,97532.19
2022-12-05T06:59:24.889Z,97534.97
2022-12-05T07:01:52.198Z,97540.25
2022-12-05T07:04:24.135Z,97533.91
2022-12-05T07:06:52.998Z,97541.78
2022-12-05T07:09:54.795Z,97555.63
2022-12-05T07:12:22.492Z,97556.59
2022-12-05T07:14:51.189Z,97557.84
2022-12-05T07:17:20.652Z,97566.19
2022-12-05T07:19:49.676Z,97566.72
2022-12-05T07:22:18.270Z,97571.69
2022-12-05T07:24:45.820Z,97574.19
2022-12-05T07:27:14.996Z,97576.22
2022-12-05T07:29:42.855Z,97575.63
2022-12-05T07:32:10.114Z,97579.66
2022-12-05T07:34:38.978Z,97578.31
2022-12-05T07:37:06.816Z,97590.22
2022-12-05T07:39:33.838Z,97598.88
2022-12-05T07:42:00.776Z,97588.69
2022-12-05T07:44:27.975Z,97581.59
2022-12-05T07:46:55.214Z,97587.19
2022-12-05T07:49:22.512Z,97585.63
2022-12-05T07:51:52.472Z,97594.25
2022-12-05T07:54:19.677Z,97601.09
2022-12-05T07:56:48.072Z,97594.25
2022-12-05T07:59:15.247Z,97602.63
2022-12-05T08:01:42.978Z,97598.78
2022-12-05T08:04:15.031Z,97595.22
2022-12-05T08:06:42.841Z,97605.91
2022-12-05T08:09:09.760Z,97605.13
2022-12-05T08:11:36.835Z,97607.91
2022-12-05T08:14:05.626Z,97607.91
2022-12-05T08:16:33.621Z,97610.69
2022-12-05T08:19:04.098Z,97621.34
2022-12-05T08:21:31.287Z,97624.88
2022-12-05T08:23:58.868Z,97623.19
2022-12-05T08:26:28.797Z,97622.69
2022-12-05T08:28:57.733Z,97625.47
2022-12-05T08:31:28.884Z,97630.56
2022-12-05T08:33:59.508Z,97629.78
2022-12-05T08:36:29.099Z,97637.88
2022-12-05T08:39:07.928Z,97644.97
2022-12-05T08:41:35.506Z,97641.91
2022-12-05T08:44:05.939Z,97649.03
2022-12-05T08:46:35.398Z,97655.81
2022-12-05T08:49:06.075Z,97656.09
2022-12-05T08:51:33.047Z,97666.78
2022-12-05T08:54:05.345Z,97671.28
2022-12-05T08:56:33.254Z,97679.16
2022-12-05T08:59:05.766Z,97677.44
2022-12-05T09:01:34.561Z,97681.00
2022-12-05T09:04:05.165Z,97678.69
2022-12-05T09:06:34.883Z,97682.50
2022-12-05T09:09:07.299Z,97671.88
2022-12-05T09:11:37.416Z,97694.16
2022-12-05T09:14:05.515Z,97694.16
2022-12-05T09:16:38.585Z,97695.09
2022-12-05T09:19:24.125Z,97703.44
2022-12-05T09:21:52.412Z,97701.63
2022-12-05T09:24:19.817Z,97699.16
2022-12-05T09:26:46.893Z,97692.50
2022-12-05T09:29:17.297Z,97705.50
2022-12-05T09:31:46.485Z,97704.72
2022-12-05T09:34:18.664Z,97704.72
2022-12-05T09:37:05.704Z,97703.19
2022-12-05T09:39:37.706Z,97708.94
2022-12-05T09:42:23.696Z,97702.59
2022-12-05T09:44:59.876Z,97702.59
2022-12-05T09:47:58.345Z,97701.63
2022-12-05T09:50:36.859Z,97699.16
2022-12-05T09:53:10.001Z,97699.91
2022-12-05T09:55:46.028Z,97703.28
2022-12-05T09:58:38.777Z,97704.06
2022-12-05T10:01:44.196Z,97698.75
2022-12-05T10:04:28.162Z,97693.78
2022-12-05T10:07:33.002Z,97689.75
2022-12-05T10:10:17.041Z,97680.13
2022-12-05T10:13:18.022Z,97682.94
2022-12-05T10:15:50.961Z,97684.75
2022-12-05T10:18:54.929Z,97699.44
2022-12-05T10:21:35.121Z,97695.00
2022-12-05T10:24:05.713Z,97692.22
2022-12-05T10:26:57.992Z,97701.84
2022-12-05T10:29:32.055Z,97705.09
2022-12-05T10:32:22.277Z,97717.03
2022-12-05T10:34:51.108Z,97705.88
2022-12-05T10:37:20.483Z,97698.75
2022-12-05T10:39:49.328Z,97716.25
2022-12-05T10:42:36.265Z,97710.69
2022-12-05T10:45:07.288Z,97714.81
2022-12-05T10:47:36.342Z,97712.78
2022-12-05T10:50:31.640Z,97714.50
2022-12-05T10:53:02.090Z,97710.69
2022-12-05T10:55:38.145Z,97703.56
2022-12-05T10:58:17.620Z,97709.91
2022-12-05T11:00:48.972Z,97701.94
2022-12-05T11:03:28.865Z,97703.63
2022-12-05T11:06:03.216Z,97694.91
2022-12-05T11:09:03.288Z,97703.25
2022-12-05T11:11:34.027Z,97701.44
2022-12-05T11:14:22.870Z,97704.22
2022-12-05T11:16:57.308Z,97712.72
2022-12-05T11:19:27.634Z,97704.09
2022-12-05T11:21:55.803Z,97704.56
2022-12-05T11:24:33.810Z,97699.31
2022-12-05T11:27:23.941Z,97703.91
2022-12-05T11:30:19.131Z,97695.84
2022-12-05T11:32:46.634Z,97687.50
2022-12-05T11:35:13.695Z,97691.66
2022-12-05T11:37:52.900Z,97690.88
2022-12-05T11:40:45.315Z,97696.25
2022-12-05T11:43:24.891Z,97693.00
2022-12-05T11:46:27.082Z,97688.94
2022-12-05T11:49:00.652Z,97692.03
2022-12-05T11:51:48.047Z,97692.03
2022-12-05T11:55:10.234Z,97699.16
2022-12-05T11:57:59.940Z,97697.03
2022-12-05T12:00:35.965Z,97690.69
2022-12-05T12:03:12.113Z,97694.72
2022-12-05T12:05:55.142Z,97695.47
2022-12-05T12:08:27.802Z,97704.41
2022-12-05T12:11:12.030Z,97695.19
2022-12-05T12:13:52.589Z,97702.59
2022-12-05T12:16:44.245Z,97696.84
2022-12-05T12:19:54.186Z,97706.22
2022-12-05T12:22:25.198Z,97704.53
2022-12-05T12:25:13.398Z,97698.75
2022-12-05T12:28:04.824Z,97693.19
2022-12-05T12:30:52.916Z,97706.06
2022-12-05T12:33:31.839Z,97702.22
2022-12-05T12:36:19.314Z,97703.28
2022-12-05T12:38:55.466Z,97703.28
2022-12-05T12:41:47.726Z,97706.84
2022-12-05T12:44:33.497Z,97709.31
2022-12-05T12:47:04.069Z,97703.28
2022-12-05T12:50:13.175Z,97706.66
2022-12-05T12:53:18.871Z,97699.34
2022-12-05T12:55:50.124Z,97706.47
2022-12-05T12:58:37.268Z,97699.16
2022-12-05T13:01:12.272Z,97705.50
2022-12-05T13:04:02.892Z,97697.44
2022-12-05T13:06:39.912Z,97700.50
2022-12-05T13:09:16.549Z,97704.63
2022-12-05T13:11:47.325Z,97699.56
2022-12-05T13:14:17.955Z,97702.03
2022-12-05T13:16:50.576Z,97701.06
2022-12-05T13:19:48.022Z,97695.50
2022-12-05T13:22:19.149Z,97696.56
2022-12-05T13:24:47.451Z,97698.38
2022-12-05T13:27:24.690Z,97694.94
2022-12-05T13:29:58.915Z,97706.84
2022-12-05T13:32:40.399Z,97705.63
2022-12-05T13:35:07.511Z,97701.09
2022-12-05T13:37:53.809Z,97703.41
2022-12-05T13:40:45.449Z,97697.06
2022-12-05T13:43:16.425Z,97704.34
2022-12-05T13:46:22.113Z,97700.31
2022-12-05T13:48:50.532Z,97704.66
2022-12-05T13:51:36.647Z,97703.88
2022-12-05T13:54:18.754Z,97699.84
2022-12-05T13:57:02.205Z,97701.66
2022-12-05T13:59:59.152Z,97702.22
2022-12-05T14:02:47.795Z,97705.31
2022-12-05T14:05:14.837Z,97695.88
2022-12-05T14:07:44.915Z,97697.16
2022-12-05T14:10:18.732Z,97698.88
2022-12-05T14:12:45.605Z,97697.81
2022-12-05T14:15:30.888Z,97697.53
2022-12-05T14:18:07.607Z,97691.69
2022-12-05T14:20:56.053Z,97692.41
2022-12-05T14:24:25.316Z,97684.25
2022-12-05T14:30:03.280Z,97699.47
2022-12-05T14:32:37.104Z,97694.38
2022-12-05T14:35:13.506Z,97692.03
2022-12-05T14:37:49.744Z,97696.69
2022-12-05T14:40:29.361Z,97705.03
2022-12-05T14:43:17.041Z,97689.25
2022-12-05T14:45:48.582Z,97691.09
2022-12-05T14:48:16.052Z,97689.56
2022-12-05T14:50:48.461Z,97681.19
2022-12-05T14:53:15.436Z,97682.13
2022-12-05T14:55:55.825Z,97694.56
2022-12-05T14:58:46.360Z,97690.34
2022-12-05T15:01:22.558Z,97687.53
2022-12-05T15:04:26.778Z,97698.19
2022-12-05T15:07:02.793Z,97694.16
2022-12-05T15:10:00.353Z,97695.72
2022-12-05T15:12:32.670Z,97698.78
2022-12-05T15:15:03.564Z,97696.28
2022-12-05T15:17:39.350Z,97695.81
2022-12-05T15:20:15.903Z,97692.06
2022-12-05T15:22:43.039Z,97691.28
2022-12-05T15:25:32.717Z,97691.09
2022-12-05T15:28:16.883Z,97697.63
2022-12-05T15:30:44.088Z,97702.44
2022-12-05T15:33:14.532Z,97697.31
2022-12-05T15:35:46.947Z,97706.97
2022-12-05T15:38:27.808Z,97703.56
2022-12-05T15:40:55.215Z,97703.00
2022-12-05T15:43:34.695Z,97704.25
2022-12-05T15:46:25.451Z,97710.31
2022-12-05T15:48:57.168Z,97716.06
2022-12-05T15:51:35.848Z,97701.84
2022-12-05T15:54:28.866Z,97714.34
2022-12-05T15:57:15.480Z,97710.00
2022-12-05T16:00:13.273Z,97716.84
2022-12-05T16:03:18.698Z,97713.88
2022-12-05T16:05:55.295Z,97720.47
2022-12-05T16:08:31.709Z,97716.47
2022-12-05T16:10:58.647Z,97720.47
2022-12-05T16:13:27.345Z,97722.69
2022-12-05T16:15:55.087Z,97716.84
2022-12-05T16:18:31.375Z,97724.91
2022-12-05T16:20:58.727Z,97721.84
2022-12-05T16:23:32.477Z,97731.63
2022-12-05T16:26:20.929Z,97728.53
2022-12-05T16:29:00.447Z,97724.06
2022-12-05T16:31:29.144Z,97719.72
2022-12-05T16:34:05.007Z,97718.19
2022-12-05T16:36:32.465Z,97725.50
2022-12-05T16:39:07.198Z,97724.06
2022-12-05T16:41:39.333Z,97723.75
2022-12-05T16:44:26.194Z,97729.91
2022-12-05T16:46:54.191Z,97726.06
2022-12-05T16:49:30.252Z,97732.69
2022-12-05T16:52:19.261Z,97727.13
2022-12-05T16:54:51.795Z,97728.66
2022-12-05T16:57:18.851Z,97736.06
2022-12-05T16:59:49.723Z,97730.78
2022-12-05T17:02:19.179Z,97732.59
2022-12-05T17:04:47.212Z,97735.69
2022-12-05T17:07:15.240Z,97741.06
2022-12-05T17:09:42.588Z,97732.50
2022-12-05T17:12:24.617Z,97743.94
2022-12-05T17:14:51.517Z,97749.50
2022-12-05T17:17:19.245Z,97741.16
2022-12-05T17:19:46.380Z,97741.16
2022-12-05T17:22:15.572Z,97741.44
2022-12-05T17:24:42.537Z,97739.31
2022-12-05T17:27:12.528Z,97736.84
2022-12-05T17:29:39.988Z,97744.13
2022-12-05T17:32:13.683Z,97750.78
2022-12-05T17:34:42.381Z,97744.91
2022-12-05T17:37:09.435Z,97750.00
2022-12-05T17:39:37.595Z,97741.44
2022-12-05T17:42:04.918Z,97739.13
2022-12-05T17:44:32.062Z,97740.22
2022-12-05T17:47:03.035Z,97749.34
2022-12-05T17:49:33.132Z,97747.78
2022-12-05T17:54:51.216Z,97744.91
2022-12-05T17:57:18.299Z,97760.06
2022-12-05T17:59:46.333Z,97756.25
2022-12-05T18:02:13.380Z,97753.16
2022-12-05T18:04:40.351Z,97758.25
2022-12-05T18:07:07.320Z,97753.00
2022-12-05T18:09:34.674Z,97758.06
2022-12-05T18:12:03.476Z,97753.72
2022-12-05T18:14:36.151Z,97759.50
2022-12-05T18:17:04.664Z,97751.91
2022-12-05T18:19:31.724Z,97759.50
2022-12-05T18:21:58.598Z,97750.28
2022-12-05T18:24:25.780Z,97756.13
2022-12-05T18:26:53.128Z,97754.31
2022-12-05T18:29:20.858Z,97759.41
2022-12-05T18:31:48.591Z,97770.84
2022-12-05T18:34:16.499Z,97749.31
2022-12-05T18:36:43.862Z,97763.56
2022-12-05T18:39:14.519Z,97760.78
2022-12-05T18:41:45.169Z,97762.59
2022-12-05T18:44:12.385Z,97759.50
2022-12-05T18:46:39.490Z,97762.28
2022-12-05T18:49:06.846Z,97754.69
2022-12-05T18:51:34.340Z,97758.25
2022-12-05T18:54:01.279Z,97756.50
2022-12-05T18:56:37.036Z,97758.56
2022-12-05T18:59:06.706Z,97759.13
2022-12-05T19:01:35.817Z,97760.66
2022-12-05T19:04:05.631Z,97756.63
2022-12-05T19:06:36.317Z,97757.19
2022-12-05T19:09:09.364Z,97746.56
2022-12-05T19:11:36.567Z,97760.28
2022-12-05T19:14:04.992Z,97764.13
2022-12-05T19:16:33.568Z,97760.88
2022-12-05T19:19:02.606Z,97761.44
2022-12-05T19:21:32.048Z,97758.97
2022-12-05T19:23:59.772Z,97764.34
2022-12-05T19:26:27.043Z,97764.13
2022-12-05T19:28:54.357Z,97756.81
2022-12-05T19:31:23.871Z,97754.53
2022-12-05T19:33:53.761Z,97763.16
2022-12-05T19:36:33.416Z,97763.94
2022-12-05T19:39:00.697Z,97763.66
2022-12-05T19:41:30.106Z,97755.31
2022-12-05T19:44:02.568Z,97762.41
2022-12-05T19:46:31.094Z,97759.13
2022-12-05T19:49:00.143Z,97761.44
2022-12-05T19:51:29.381Z,97766.53
2022-12-05T19:54:01.868Z,97765.28
2022-12-05T19:56:31.421Z,97764.25
2022-12-05T19:59:01.359Z,97760.94
2022-12-05T20:01:38.503Z,97763.75
2022-12-05T20:04:10.998Z,97765.00
2022-12-05T20:06:42.325Z,97758.66
2022-12-05T20:09:10.974Z,97757.41
2022-12-05T20:11:40.508Z,97760.69
2022-12-05T20:14:08.045Z,97760.69
2022-12-05T20:16:36.363Z,97761.94
2022-12-05T20:19:04.991Z,97761.81
2022-12-05T20:21:34.748Z,97759.34
2022-12-05T20:24:04.523Z,97756.75
2022-12-05T20:26:37.388Z,97761.81
2022-12-05T20:29:05.221Z,97766.63
2022-12-05T20:31:42.178Z,97762.03
2022-12-05T20:34:14.475Z,97764.34
2022-12-05T20:36:42.558Z,97766.34
2022-12-05T20:39:15.308Z,97761.81
2022-12-05T20:41:43.099Z,97763.84
2022-12-05T20:44:14.047Z,97764.03
2022-12-05T20:46:41.771Z,97758.97
2022-12-05T20:49:14.558Z,97768.84
2022-12-05T20:51:43.518Z,97761.75
2022-12-05T20:54:13.433Z,97773.19
2022-12-05T20:56:42.040Z,97756.06
2022-12-05T20:59:14.091Z,97756.16
2022-12-05T21:01:41.386Z,97759.69
2022-12-05T21:04:09.583Z,97768.06
2022-12-05T21:06:41.075Z,97766.81
2022-12-05T21:09:15.599Z,97766.06
2022-12-05T21:11:44.588Z,97759.53
2022-12-05T21:14:12.289Z,97756.16
2022-12-05T21:16:40.513Z,97762.59
2022-12-05T21:19:11.501Z,97753.97
2022-12-05T21:21:38.685Z,97763.06
2022-12-05T21:24:08.284Z,97753.09
2022-12-05T21:26:36.381Z,97758.19
2022-12-05T21:29:04.972Z,97753.38
2022-12-05T21:31:37.457Z,97757.69
2022-12-05T21:34:09.312Z,97750.28
2022-12-05T21:36:39.137Z,97753.09
2022-12-05T21:39:07.090Z,97747.72
2022-12-05T21:41:34.990Z,97752.78
2022-12-05T21:44:02.549Z,97746.16
2022-12-05T21:46:29.734Z,97748.19
2022-12-05T21:48:58.336Z,97751.06
2022-12-05T21:51:26.306Z,97752.41
2022-12-05T21:53:53.207Z,97748.19
2022-12-05T21:56:25.712Z,97739.53
2022-12-05T21:58:53.185Z,97749.13
2022-12-05T22:01:27.067Z,97743.84
2022-12-05T22:03:56.276Z,97753.19
2022-12-05T22:06:23.440Z,97746.72
2022-12-05T22:08:50.529Z,97748.75
2022-12-05T22:11:22.329Z,97751.06
2022-12-05T22:13:49.884Z,97744.91
2022-12-05T22:16:19.140Z,97745.69
2022-12-05T22:18:46.750Z,97746.72
2022-12-05T22:21:16.132Z,97738.56
2022-12-05T22:23:43.091Z,97747.81
2022-12-05T22:26:12.984Z,97739.72
2022-12-05T22:28:40.636Z,97737.97
2022-12-05T22:31:12.246Z,97743.06
2022-12-05T22:33:40.498Z,97741.84
2022-12-05T22:36:10.022Z,97731.47
2022-12-05T22:38:39.894Z,97727.59
2022-12-05T22:41:15.528Z,97731.66
2022-12-05T22:43:44.407Z,97721.44
2022-12-05T22:46:14.687Z,97725.69
2022-12-05T22:48:41.937Z,97724.91
2022-12-05T22:51:10.063Z,97716.84
2022-12-05T22:53:38.676Z,97718.09
2022-12-05T22:56:08.424Z,97719.81
2022-12-05T22:58:36.196Z,97712.41
2022-12-05T23:01:21.673Z,97701.47
2022-12-05T23:03:50.752Z,97706.09
2022-12-05T23:06:18.149Z,97700.53
2022-12-05T23:08:47.976Z,97696.66
2022-12-05T23:11:18.917Z,97700.53
2022-12-05T23:13:47.281Z,97701.75
2022-12-05T23:16:21.483Z,97697.72
2022-12-05T23:18:49.878Z,97691.09
2022-12-05T23:21:18.377Z,97687.25
2022-12-05T23:23:46.187Z,97692.06
2022-12-05T23:26:13.779Z,97688.97
2022-12-05T23:28:40.749Z,97694.53
2022-12-05T23:31:09.848Z,97693.78
2022-12-05T23:33:37.631Z,97691.47
2022-12-05T23:36:05.252Z,97687.34
2022-12-05T23:38:34.795Z,97692.41
2022-12-05T23:41:04.167Z,97688.91
2022-12-05T23:43:32.940Z,97695.41
2022-12-05T23:46:00.552Z,97699.47
2022-12-05T23:48:28.251Z,97702.25
2022-12-05T23:51:04.026Z,97692.81
2022-12-05T23:53:32.606Z,97699.16
2022-12-05T23:56:09.559Z,97689.25
2022-12-05T23:58:37.612Z,97696.06
